sensor_id;sensor_type;location;lat;lon;timestamp;pressure;altitude;pressure_sealevel;temperature;humidity
7802;BME280;3945;48.952;9.506;2023-03-03T00:02:12;98121.84;;;2.71;78.77
7802;BME280;3945;48.952;9.506;2023-03-03T00:04:38;98125.63;;;2.69;79.56
7802;BME280;3945;48.952;9.506;2023-03-03T00:07:06;98131.88;;;2.68;79.13
7802;BME280;3945;48.952;9.506;2023-03-03T00:09:32;98131.38;;;2.58;79.47
7802;BME280;3945;48.952;9.506;2023-03-03T00:11:59;98126.00;;;2.45;79.58
7802;BME280;3945;48.952;9.506;2023-03-03T00:14:27;98125.09;;;2.38;80.84
7802;BME280;3945;48.952;9.506;2023-03-03T00:16:53;98129.72;;;2.35;80.55
7802;BME280;3945;48.952;9.506;2023-03-03T00:19:20;98127.00;;;2.29;81.12
7802;BME280;3945;48.952;9.506;2023-03-03T00:21:47;98134.25;;;2.27;82.11
7802;BME280;3945;48.952;9.506;2023-03-03T00:24:20;98128.72;;;2.22;81.17
7802;BME280;3945;48.952;9.506;2023-03-03T00:26:47;98135.25;;;2.11;82.08
7802;BME280;3945;48.952;9.506;2023-03-03T00:32:21;98129.19;;;2.11;81.19
7802;BME280;3945;48.952;9.506;2023-03-03T00:34:48;98134.44;;;2.11;82.71
7802;BME280;3945;48.952;9.506;2023-03-03T00:37:19;98136.78;;;2.06;82.13
7802;BME280;3945;48.952;9.506;2023-03-03T00:39:49;98133.91;;;2.01;81.44
7802;BME280;3945;48.952;9.506;2023-03-03T00:42:16;98136.06;;;1.97;81.84
7802;BME280;3945;48.952;9.506;2023-03-03T00:44:43;98135.25;;;1.96;82.31
7802;BME280;3945;48.952;9.506;2023-03-03T00:47:17;98132.19;;;1.93;82.06
7802;BME280;3945;48.952;9.506;2023-03-03T00:49:47;98138.34;;;1.85;81.92
7802;BME280;3945;48.952;9.506;2023-03-03T00:52:15;98131.28;;;1.86;82.43
7802;BME280;3945;48.952;9.506;2023-03-03T00:54:42;98139.97;;;1.86;82.52
7802;BME280;3945;48.952;9.506;2023-03-03T00:57:10;98143.03;;;1.90;82.87
7802;BME280;3945;48.952;9.506;2023-03-03T00:59:37;98141.78;;;1.86;83.22
7802;BME280;3945;48.952;9.506;2023-03-03T01:02:03;98140.13;;;1.85;82.56
7802;BME280;3945;48.952;9.506;2023-03-03T01:04:29;98139.22;;;1.78;83.16
7802;BME280;3945;48.952;9.506;2023-03-03T01:06:56;98133.16;;;1.77;83.46
7802;BME280;3945;48.952;9.506;2023-03-03T01:09:22;98139.66;;;1.81;83.06
7802;BME280;3945;48.952;9.506;2023-03-03T01:11:48;98135.88;;;1.84;82.62
7802;BME280;3945;48.952;9.506;2023-03-03T01:14:16;98134.25;;;1.83;82.33
7802;BME280;3945;48.952;9.506;2023-03-03T01:16:42;98138.84;;;1.81;82.78
7802;BME280;3945;48.952;9.506;2023-03-03T01:19:09;98137.59;;;1.77;83.11
7802;BME280;3945;48.952;9.506;2023-03-03T01:21:35;98126.03;;;1.71;82.62
7802;BME280;3945;48.952;9.506;2023-03-03T01:24:01;98126.53;;;1.67;82.91
7802;BME280;3945;48.952;9.506;2023-03-03T01:26:28;98134.13;;;1.62;84.60
7802;BME280;3945;48.952;9.506;2023-03-03T01:28:55;98121.56;;;1.57;85.36
7802;BME280;3945;48.952;9.506;2023-03-03T01:31:23;98113.22;;;1.53;85.10
7802;BME280;3945;48.952;9.506;2023-03-03T01:33:49;98128.78;;;1.55;85.19
7802;BME280;3945;48.952;9.506;2023-03-03T01:36:15;98125.19;;;1.56;85.27
7802;BME280;3945;48.952;9.506;2023-03-03T01:38:47;98131.59;;;1.53;84.84
7802;BME280;3945;48.952;9.506;2023-03-03T01:41:14;98124.28;;;1.49;84.82
7802;BME280;3945;48.952;9.506;2023-03-03T01:43:42;98133.94;;;1.48;84.62
7802;BME280;3945;48.952;9.506;2023-03-03T01:46:21;98139.63;;;1.52;84.25
7802;BME280;3945;48.952;9.506;2023-03-03T01:48:55;98125.53;;;1.53;84.46
7802;BME280;3945;48.952;9.506;2023-03-03T01:51:27;98111.00;;;1.50;83.79
7802;BME280;3945;48.952;9.506;2023-03-03T01:53:54;98118.66;;;1.52;83.85
7802;BME280;3945;48.952;9.506;2023-03-03T01:56:22;98118.31;;;1.55;83.88
7802;BME280;3945;48.952;9.506;2023-03-03T01:58:50;98115.69;;;1.55;83.41
7802;BME280;3945;48.952;9.506;2023-03-03T02:01:18;98103.94;;;1.51;83.08
7802;BME280;3945;48.952;9.506;2023-03-03T02:03:46;98106.91;;;1.48;83.14
7802;BME280;3945;48.952;9.506;2023-03-03T02:06:14;98104.09;;;1.49;83.14
7802;BME280;3945;48.952;9.506;2023-03-03T02:08:41;98110.69;;;1.45;83.12
7802;BME280;3945;48.952;9.506;2023-03-03T02:11:10;98100.09;;;1.39;82.97
7802;BME280;3945;48.952;9.506;2023-03-03T02:13:37;98106.88;;;1.33;83.01
7802;BME280;3945;48.952;9.506;2023-03-03T02:16:04;98099.19;;;1.32;83.32
7802;BME280;3945;48.952;9.506;2023-03-03T02:18:30;98109.06;;;1.30;83.66
7802;BME280;3945;48.952;9.506;2023-03-03T02:20:57;98101.06;;;1.23;83.12
7802;BME280;3945;48.952;9.506;2023-03-03T02:23:28;98109.81;;;1.15;83.41
7802;BME280;3945;48.952;9.506;2023-03-03T02:26:03;98114.94;;;1.09;83.71
7802;BME280;3945;48.952;9.506;2023-03-03T02:28:31;98110.47;;;0.95;84.07
7802;BME280;3945;48.952;9.506;2023-03-03T02:30:58;98111.16;;;0.89;84.85
7802;BME280;3945;48.952;9.506;2023-03-03T02:33:25;98109.91;;;0.85;85.01
7802;BME280;3945;48.952;9.506;2023-03-03T02:35:51;98118.38;;;0.87;85.66
7802;BME280;3945;48.952;9.506;2023-03-03T02:38:19;98112.81;;;0.90;86.07
7802;BME280;3945;48.952;9.506;2023-03-03T02:40:48;98112.81;;;0.90;86.52
7802;BME280;3945;48.952;9.506;2023-03-03T02:43:19;98113.44;;;0.92;86.16
7802;BME280;3945;48.952;9.506;2023-03-03T02:45:48;98106.75;;;0.89;86.01
7802;BME280;3945;48.952;9.506;2023-03-03T02:48:14;98114.16;;;0.86;86.05
7802;BME280;3945;48.952;9.506;2023-03-03T02:50:41;98111.59;;;0.77;86.07
7802;BME280;3945;48.952;9.506;2023-03-03T02:53:07;98124.38;;;0.72;85.87
7802;BME280;3945;48.952;9.506;2023-03-03T02:55:34;98121.28;;;0.69;86.10
7802;BME280;3945;48.952;9.506;2023-03-03T02:58:00;98113.28;;;0.70;86.30
7802;BME280;3945;48.952;9.506;2023-03-03T03:00:27;98118.78;;;0.75;86.15
7802;BME280;3945;48.952;9.506;2023-03-03T03:02:54;98113.22;;;0.78;86.05
7802;BME280;3945;48.952;9.506;2023-03-03T03:05:20;98104.19;;;0.81;85.88
7802;BME280;3945;48.952;9.506;2023-03-03T03:07:46;98114.44;;;0.91;86.26
7802;BME280;3945;48.952;9.506;2023-03-03T03:10:13;98110.28;;;0.96;85.88
7802;BME280;3945;48.952;9.506;2023-03-03T03:12:39;98117.34;;;0.96;86.10
7802;BME280;3945;48.952;9.506;2023-03-03T03:15:06;98114.97;;;0.86;85.45
7802;BME280;3945;48.952;9.506;2023-03-03T03:17:35;98123.31;;;0.82;85.98
7802;BME280;3945;48.952;9.506;2023-03-03T03:20:01;98128.72;;;0.80;86.41
7802;BME280;3945;48.952;9.506;2023-03-03T03:22:28;98118.09;;;0.82;85.90
7802;BME280;3945;48.952;9.506;2023-03-03T03:24:54;98124.63;;;0.86;86.70
7802;BME280;3945;48.952;9.506;2023-03-03T03:27:20;98128.50;;;0.90;86.85
7802;BME280;3945;48.952;9.506;2023-03-03T03:29:47;98129.00;;;0.93;87.17
7802;BME280;3945;48.952;9.506;2023-03-03T03:32:13;98124.53;;;0.94;87.60
7802;BME280;3945;48.952;9.506;2023-03-03T03:34:41;98124.38;;;0.95;87.18
7802;BME280;3945;48.952;9.506;2023-03-03T03:37:07;98128.91;;;1.01;87.36
7802;BME280;3945;48.952;9.506;2023-03-03T03:39:34;98119.91;;;1.04;87.51
7802;BME280;3945;48.952;9.506;2023-03-03T03:42:00;98125.41;;;1.09;87.16
7802;BME280;3945;48.952;9.506;2023-03-03T03:44:26;98121.47;;;1.13;87.29
7802;BME280;3945;48.952;9.506;2023-03-03T03:46:53;98122.28;;;1.13;87.27
7802;BME280;3945;48.952;9.506;2023-03-03T03:49:19;98116.88;;;1.15;87.20
7802;BME280;3945;48.952;9.506;2023-03-03T03:51:47;98120.13;;;1.17;87.38
7802;BME280;3945;48.952;9.506;2023-03-03T03:54:13;98117.31;;;1.18;87.54
7802;BME280;3945;48.952;9.506;2023-03-03T03:56:39;98119.13;;;1.18;86.87
7802;BME280;3945;48.952;9.506;2023-03-03T03:59:06;98124.19;;;1.20;87.40
7802;BME280;3945;48.952;9.506;2023-03-03T04:01:32;98123.03;;;1.22;87.47
7802;BME280;3945;48.952;9.506;2023-03-03T04:03:58;98119.59;;;1.22;87.38
7802;BME280;3945;48.952;9.506;2023-03-03T04:06:25;98117.31;;;1.18;86.85
7802;BME280;3945;48.952;9.506;2023-03-03T04:08:52;98121.84;;;1.25;87.18
7802;BME280;3945;48.952;9.506;2023-03-03T04:11:19;98117.59;;;1.24;87.94
7802;BME280;3945;48.952;9.506;2023-03-03T04:13:46;98120.03;;;1.25;87.42
7802;BME280;3945;48.952;9.506;2023-03-03T04:16:12;98118.41;;;1.24;87.66
7802;BME280;3945;48.952;9.506;2023-03-03T04:18:38;98117.09;;;1.28;87.02
7802;BME280;3945;48.952;9.506;2023-03-03T04:21:05;98115.47;;;1.27;86.61
7802;BME280;3945;48.952;9.506;2023-03-03T04:23:31;98118.25;;;1.26;86.53
7802;BME280;3945;48.952;9.506;2023-03-03T04:25:58;98119.78;;;1.20;86.75
7802;BME280;3945;48.952;9.506;2023-03-03T04:28:25;98128.63;;;1.19;86.60
7802;BME280;3945;48.952;9.506;2023-03-03T04:30:51;98133.88;;;1.19;85.74
7802;BME280;3945;48.952;9.506;2023-03-03T04:33:17;98137.47;;;1.18;86.19
7802;BME280;3945;48.952;9.506;2023-03-03T04:35:44;98131.25;;;1.19;85.56
7802;BME280;3945;48.952;9.506;2023-03-03T04:38:10;98137.84;;;1.15;85.65
7802;BME280;3945;48.952;9.506;2023-03-03T04:40:38;98142.94;;;1.08;86.07
7802;BME280;3945;48.952;9.506;2023-03-03T04:43:06;98145.75;;;1.07;86.58
7802;BME280;3945;48.952;9.506;2023-03-03T04:45:32;98142.50;;;1.05;86.83
7802;BME280;3945;48.952;9.506;2023-03-03T04:47:59;98141.66;;;1.04;87.03
7802;BME280;3945;48.952;9.506;2023-03-03T04:50:25;98147.56;;;1.06;87.10
7802;BME280;3945;48.952;9.506;2023-03-03T04:52:51;98147.91;;;1.03;86.88
7802;BME280;3945;48.952;9.506;2023-03-03T04:55:18;98151.34;;;1.04;87.38
7802;BME280;3945;48.952;9.506;2023-03-03T04:57:44;98152.16;;;1.04;87.00
7802;BME280;3945;48.952;9.506;2023-03-03T05:00:12;98155.25;;;1.08;87.62
7802;BME280;3945;48.952;9.506;2023-03-03T05:02:39;98147.84;;;1.11;87.61
7802;BME280;3945;48.952;9.506;2023-03-03T05:05:05;98144.06;;;1.14;86.74
7802;BME280;3945;48.952;9.506;2023-03-03T05:07:33;98145.50;;;1.16;86.91
7802;BME280;3945;48.952;9.506;2023-03-03T05:10:00;98147.50;;;1.14;86.14
7802;BME280;3945;48.952;9.506;2023-03-03T05:12:26;98151.94;;;1.14;86.90
7802;BME280;3945;48.952;9.506;2023-03-03T05:14:53;98154.72;;;1.12;86.79
7802;BME280;3945;48.952;9.506;2023-03-03T05:17:20;98162.75;;;1.11;86.44
7802;BME280;3945;48.952;9.506;2023-03-03T05:19:47;98157.88;;;1.08;86.26
7802;BME280;3945;48.952;9.506;2023-03-03T05:22:13;98160.81;;;1.05;86.56
7802;BME280;3945;48.952;9.506;2023-03-03T05:24:39;98169.66;;;1.04;86.84
7802;BME280;3945;48.952;9.506;2023-03-03T05:27:06;98167.06;;;1.04;86.41
7802;BME280;3945;48.952;9.506;2023-03-03T05:29:33;98169.13;;;1.08;86.37
7802;BME280;3945;48.952;9.506;2023-03-03T05:31:59;98159.47;;;1.09;86.35
7802;BME280;3945;48.952;9.506;2023-03-03T05:34:27;98164.56;;;1.10;87.10
7802;BME280;3945;48.952;9.506;2023-03-03T05:36:53;98175.84;;;1.11;86.86
7802;BME280;3945;48.952;9.506;2023-03-03T05:39:20;98165.03;;;1.14;87.25
7802;BME280;3945;48.952;9.506;2023-03-03T05:41:47;98168.47;;;1.14;86.95
7802;BME280;3945;48.952;9.506;2023-03-03T05:44:13;98169.72;;;1.18;87.74
7802;BME280;3945;48.952;9.506;2023-03-03T05:46:39;98166.47;;;1.16;87.26
7802;BME280;3945;48.952;9.506;2023-03-03T05:49:06;98175.50;;;1.14;87.20
7802;BME280;3945;48.952;9.506;2023-03-03T05:51:34;98177.47;;;1.12;87.63
7802;BME280;3945;48.952;9.506;2023-03-03T05:54:00;98181.78;;;1.05;87.29
7802;BME280;3945;48.952;9.506;2023-03-03T05:56:26;98183.47;;;0.98;87.51
7802;BME280;3945;48.952;9.506;2023-03-03T05:58:53;98178.22;;;0.98;87.40
7802;BME280;3945;48.952;9.506;2023-03-03T06:01:20;98185.75;;;1.01;88.21
7802;BME280;3945;48.952;9.506;2023-03-03T06:03:46;98187.84;;;1.05;88.16
7802;BME280;3945;48.952;9.506;2023-03-03T06:06:12;98180.97;;;1.04;87.85
7802;BME280;3945;48.952;9.506;2023-03-03T06:08:42;98192.28;;;1.05;88.31
7802;BME280;3945;48.952;9.506;2023-03-03T06:11:08;98190.59;;;1.12;88.19
7802;BME280;3945;48.952;9.506;2023-03-03T06:13:34;98197.47;;;1.13;88.02
7802;BME280;3945;48.952;9.506;2023-03-03T06:16:01;98198.09;;;1.15;87.94
7802;BME280;3945;48.952;9.506;2023-03-03T06:18:27;98205.59;;;1.18;88.21
7802;BME280;3945;48.952;9.506;2023-03-03T06:20:54;98200.19;;;1.20;88.00
7802;BME280;3945;48.952;9.506;2023-03-03T06:23:20;98201.66;;;1.22;88.24
7802;BME280;3945;48.952;9.506;2023-03-03T06:25:48;98207.34;;;1.26;88.17
7802;BME280;3945;48.952;9.506;2023-03-03T06:28:15;98211.06;;;1.31;88.34
7802;BME280;3945;48.952;9.506;2023-03-03T06:30:41;98202.50;;;1.37;88.55
7802;BME280;3945;48.952;9.506;2023-03-03T06:33:07;98205.59;;;1.41;88.25
7802;BME280;3945;48.952;9.506;2023-03-03T06:35:34;98214.75;;;1.45;88.98
7802;BME280;3945;48.952;9.506;2023-03-03T06:38:00;98214.94;;;1.43;89.18
7802;BME280;3945;48.952;9.506;2023-03-03T06:40:27;98226.16;;;1.52;88.25
7802;BME280;3945;48.952;9.506;2023-03-03T06:42:54;98223.03;;;1.56;88.95
7802;BME280;3945;48.952;9.506;2023-03-03T06:45:21;98220.94;;;1.67;87.93
7802;BME280;3945;48.952;9.506;2023-03-03T06:47:47;98214.88;;;1.66;88.25
7802;BME280;3945;48.952;9.506;2023-03-03T06:50:13;98224.06;;;1.70;88.29
7802;BME280;3945;48.952;9.506;2023-03-03T06:52:43;98227.78;;;1.76;87.36
7802;BME280;3945;48.952;9.506;2023-03-03T06:55:10;98225.63;;;1.79;87.85
7802;BME280;3945;48.952;9.506;2023-03-03T06:57:37;98229.22;;;1.78;87.10
7802;BME280;3945;48.952;9.506;2023-03-03T07:00:11;98235.09;;;1.80;87.71
7802;BME280;3945;48.952;9.506;2023-03-03T07:02:39;98235.22;;;1.87;88.14
7802;BME280;3945;48.952;9.506;2023-03-03T07:05:06;98235.50;;;1.92;87.42
7802;BME280;3945;48.952;9.506;2023-03-03T07:07:35;98236.97;;;1.94;87.27
7802;BME280;3945;48.952;9.506;2023-03-03T07:10:05;98234.78;;;1.98;87.89
7802;BME280;3945;48.952;9.506;2023-03-03T07:12:32;98237.16;;;2.08;86.90
7802;BME280;3945;48.952;9.506;2023-03-03T07:15:01;98234.97;;;2.11;87.69
7802;BME280;3945;48.952;9.506;2023-03-03T07:17:39;98233.91;;;2.20;87.40
7802;BME280;3945;48.952;9.506;2023-03-03T07:20:09;98237.69;;;2.18;87.81
7802;BME280;3945;48.952;9.506;2023-03-03T07:22:40;98234.34;;;2.24;86.94
7802;BME280;3945;48.952;9.506;2023-03-03T07:25:08;98238.09;;;2.29;87.65
7802;BME280;3945;48.952;9.506;2023-03-03T07:27:40;98240.16;;;2.34;87.30
7802;BME280;3945;48.952;9.506;2023-03-03T07:30:12;98237.34;;;2.35;86.76
7802;BME280;3945;48.952;9.506;2023-03-03T07:32:44;98248.59;;;2.44;86.08
7802;BME280;3945;48.952;9.506;2023-03-03T07:35:20;98250.31;;;2.52;85.46
7802;BME280;3945;48.952;9.506;2023-03-03T07:37:49;98254.53;;;2.53;85.73
7802;BME280;3945;48.952;9.506;2023-03-03T07:40:24;98254.66;;;2.59;85.89
7802;BME280;3945;48.952;9.506;2023-03-03T07:42:53;98251.31;;;2.65;85.71
7802;BME280;3945;48.952;9.506;2023-03-03T07:45:21;98261.25;;;2.70;86.28
7802;BME280;3945;48.952;9.506;2023-03-03T07:47:51;98264.78;;;2.77;86.29
7802;BME280;3945;48.952;9.506;2023-03-03T07:50:19;98267.22;;;2.79;85.86
7802;BME280;3945;48.952;9.506;2023-03-03T07:52:48;98267.38;;;2.92;85.10
7802;BME280;3945;48.952;9.506;2023-03-03T07:55:22;98265.09;;;3.03;84.33
7802;BME280;3945;48.952;9.506;2023-03-03T07:57:50;98267.25;;;3.14;85.34
7802;BME280;3945;48.952;9.506;2023-03-03T08:03:04;98263.97;;;3.48;84.13
7802;BME280;3945;48.952;9.506;2023-03-03T08:05:31;98263.59;;;3.73;84.12
7802;BME280;3945;48.952;9.506;2023-03-03T08:10:42;98272.41;;;4.36;81.15
7802;BME280;3945;48.952;9.506;2023-03-03T08:13:14;98265.25;;;4.57;79.94
7802;BME280;3945;48.952;9.506;2023-03-03T08:15:42;98272.09;;;4.86;79.27
7802;BME280;3945;48.952;9.506;2023-03-03T08:18:15;98272.78;;;5.08;78.76
7802;BME280;3945;48.952;9.506;2023-03-03T08:20:44;98270.03;;;5.29;78.27
7802;BME280;3945;48.952;9.506;2023-03-03T08:23:11;98274.34;;;5.50;77.35
7802;BME280;3945;48.952;9.506;2023-03-03T08:25:38;98273.16;;;5.66;76.59
7802;BME280;3945;48.952;9.506;2023-03-03T08:28:05;98279.88;;;5.81;74.38
7802;BME280;3945;48.952;9.506;2023-03-03T08:30:31;98269.56;;;5.93;74.45
7802;BME280;3945;48.952;9.506;2023-03-03T08:32:57;98274.63;;;6.08;74.69
7802;BME280;3945;48.952;9.506;2023-03-03T08:35:25;98275.88;;;6.25;74.08
7802;BME280;3945;48.952;9.506;2023-03-03T08:37:51;98279.09;;;6.47;73.37
7802;BME280;3945;48.952;9.506;2023-03-03T08:40:18;98273.59;;;6.42;71.58
7802;BME280;3945;48.952;9.506;2023-03-03T08:42:44;98272.41;;;6.31;72.20
7802;BME280;3945;48.952;9.506;2023-03-03T08:45:10;98277.69;;;6.24;72.38
7802;BME280;3945;48.952;9.506;2023-03-03T08:47:36;98285.22;;;6.08;71.67
7802;BME280;3945;48.952;9.506;2023-03-03T08:50:03;98277.91;;;5.97;72.11
7802;BME280;3945;48.952;9.506;2023-03-03T08:52:31;98284.19;;;5.89;72.28
7802;BME280;3945;48.952;9.506;2023-03-03T08:54:58;98287.81;;;5.81;71.83
7802;BME280;3945;48.952;9.506;2023-03-03T08:57:24;98292.84;;;5.76;72.40
7802;BME280;3945;48.952;9.506;2023-03-03T08:59:51;98299.94;;;5.69;71.93
7802;BME280;3945;48.952;9.506;2023-03-03T09:02:17;98295.28;;;5.65;73.26
7802;BME280;3945;48.952;9.506;2023-03-03T09:04:43;98293.25;;;5.60;74.31
7802;BME280;3945;48.952;9.506;2023-03-03T09:07:10;98290.19;;;5.63;74.21
7802;BME280;3945;48.952;9.506;2023-03-03T09:09:37;98302.19;;;5.66;74.82
7802;BME280;3945;48.952;9.506;2023-03-03T09:12:08;98302.63;;;5.76;74.78
7802;BME280;3945;48.952;9.506;2023-03-03T09:14:38;98299.38;;;5.80;75.12
7802;BME280;3945;48.952;9.506;2023-03-03T09:17:07;98308.78;;;5.90;74.85
7802;BME280;3945;48.952;9.506;2023-03-03T09:19:44;98307.53;;;5.99;73.32
7802;BME280;3945;48.952;9.506;2023-03-03T09:22:13;98312.03;;;6.05;72.68
7802;BME280;3945;48.952;9.506;2023-03-03T09:24:44;98304.91;;;6.05;73.43
7802;BME280;3945;48.952;9.506;2023-03-03T09:27:11;98310.41;;;6.10;74.24
7802;BME280;3945;48.952;9.506;2023-03-03T09:29:41;98307.97;;;6.22;74.12
7802;BME280;3945;48.952;9.506;2023-03-03T09:32:14;98303.09;;;6.39;74.74
7802;BME280;3945;48.952;9.506;2023-03-03T09:34:42;98301.63;;;6.69;73.28
7802;BME280;3945;48.952;9.506;2023-03-03T09:37:14;98302.94;;;7.11;72.25
7802;BME280;3945;48.952;9.506;2023-03-03T09:39:44;98312.19;;;7.40;71.11
7802;BME280;3945;48.952;9.506;2023-03-03T09:42:22;98308.38;;;7.67;70.95
7802;BME280;3945;48.952;9.506;2023-03-03T09:47:50;98308.69;;;8.40;66.88
7802;BME280;3945;48.952;9.506;2023-03-03T09:50:24;98297.41;;;8.70;64.93
7802;BME280;3945;48.952;9.506;2023-03-03T09:52:55;98299.50;;;9.04;65.04
7802;BME280;3945;48.952;9.506;2023-03-03T09:55:35;98304.66;;;9.35;64.40
7802;BME280;3945;48.952;9.506;2023-03-03T09:58:12;98312.94;;;9.57;63.02
7802;BME280;3945;48.952;9.506;2023-03-03T10:00:42;98309.91;;;9.84;59.71
7802;BME280;3945;48.952;9.506;2023-03-03T10:03:28;98300.50;;;10.11;60.28
7802;BME280;3945;48.952;9.506;2023-03-03T10:06:01;98298.19;;;10.03;59.35
7802;BME280;3945;48.952;9.506;2023-03-03T10:08:41;98301.72;;;9.85;59.88
7802;BME280;3945;48.952;9.506;2023-03-03T10:11:14;98297.53;;;9.77;59.75
7802;BME280;3945;48.952;9.506;2023-03-03T10:13:50;98302.72;;;9.72;60.65
7802;BME280;3945;48.952;9.506;2023-03-03T10:16:27;98304.41;;;9.67;59.74
7802;BME280;3945;48.952;9.506;2023-03-03T10:18:57;98301.84;;;9.60;60.40
7802;BME280;3945;48.952;9.506;2023-03-03T10:21:27;98293.06;;;9.60;60.30
7802;BME280;3945;48.952;9.506;2023-03-03T10:23:55;98290.09;;;9.68;61.34
7802;BME280;3945;48.952;9.506;2023-03-03T10:26:33;98285.28;;;9.76;61.06
7802;BME280;3945;48.952;9.506;2023-03-03T10:29:05;98291.41;;;9.77;60.80
7802;BME280;3945;48.952;9.506;2023-03-03T10:31:39;98293.94;;;9.72;60.00
7802;BME280;3945;48.952;9.506;2023-03-03T10:34:14;98290.47;;;9.71;60.82
7802;BME280;3945;48.952;9.506;2023-03-03T10:36:45;98291.34;;;9.65;60.37
7802;BME280;3945;48.952;9.506;2023-03-03T10:39:19;98287.53;;;9.61;59.77
7802;BME280;3945;48.952;9.506;2023-03-03T10:41:57;98292.84;;;9.61;60.25
7802;BME280;3945;48.952;9.506;2023-03-03T10:44:40;98292.31;;;9.71;60.24
7802;BME280;3945;48.952;9.506;2023-03-03T10:47:22;98287.72;;;9.78;59.34
7802;BME280;3945;48.952;9.506;2023-03-03T10:49:55;98295.59;;;9.85;59.81
7802;BME280;3945;48.952;9.506;2023-03-03T10:52:30;98302.88;;;9.89;59.72
7802;BME280;3945;48.952;9.506;2023-03-03T10:57:57;98292.03;;;10.02;60.27
7802;BME280;3945;48.952;9.506;2023-03-03T11:00:28;98299.34;;;10.07;59.98
7802;BME280;3945;48.952;9.506;2023-03-03T11:03:13;98308.59;;;10.04;60.52
7802;BME280;3945;48.952;9.506;2023-03-03T11:05:48;98307.66;;;9.99;59.87
7802;BME280;3945;48.952;9.506;2023-03-03T11:08:16;98312.16;;;9.98;59.69
7802;BME280;3945;48.952;9.506;2023-03-03T11:10:47;98316.44;;;9.99;60.31
7802;BME280;3945;48.952;9.506;2023-03-03T11:13:20;98313.56;;;10.01;59.92
7802;BME280;3945;48.952;9.506;2023-03-03T11:16:05;98304.19;;;9.98;58.63
7802;BME280;3945;48.952;9.506;2023-03-03T11:18:42;98307.44;;;10.00;60.05
7802;BME280;3945;48.952;9.506;2023-03-03T11:21:14;98311.84;;;10.06;59.56
7802;BME280;3945;48.952;9.506;2023-03-03T11:26:32;98301.09;;;10.13;59.21
7802;BME280;3945;48.952;9.506;2023-03-03T11:31:46;98294.19;;;10.24;58.48
7802;BME280;3945;48.952;9.506;2023-03-03T11:34:16;98295.84;;;10.36;58.88
7802;BME280;3945;48.952;9.506;2023-03-03T11:36:46;98298.03;;;10.39;56.72
7802;BME280;3945;48.952;9.506;2023-03-03T11:39:15;98287.53;;;10.44;58.24
7802;BME280;3945;48.952;9.506;2023-03-03T11:41:46;98282.91;;;10.51;56.95
7802;BME280;3945;48.952;9.506;2023-03-03T11:44:17;98283.81;;;10.69;58.49
7802;BME280;3945;48.952;9.506;2023-03-03T11:46:49;98278.25;;;10.93;56.23
7802;BME280;3945;48.952;9.506;2023-03-03T11:49:18;98277.50;;;11.10;55.71
7802;BME280;3945;48.952;9.506;2023-03-03T11:51:52;98267.88;;;11.20;56.43
7802;BME280;3945;48.952;9.506;2023-03-03T11:54:21;98265.50;;;11.35;55.67
7802;BME280;3945;48.952;9.506;2023-03-03T11:56:49;98267.06;;;11.48;54.82
7802;BME280;3945;48.952;9.506;2023-03-03T11:59:24;98264.47;;;11.65;54.65
7802;BME280;3945;48.952;9.506;2023-03-03T12:01:56;98260.13;;;11.76;53.70
7802;BME280;3945;48.952;9.506;2023-03-03T12:04:24;98264.69;;;11.92;53.17
7802;BME280;3945;48.952;9.506;2023-03-03T12:06:57;98256.38;;;12.05;53.55
7802;BME280;3945;48.952;9.506;2023-03-03T12:09:31;98252.19;;;12.09;52.79
7802;BME280;3945;48.952;9.506;2023-03-03T12:12:03;98258.22;;;12.04;50.50
7802;BME280;3945;48.952;9.506;2023-03-03T12:17:19;98252.16;;;11.92;51.86
7802;BME280;3945;48.952;9.506;2023-03-03T12:19:51;98250.13;;;11.83;51.91
7802;BME280;3945;48.952;9.506;2023-03-03T12:22:22;98248.78;;;11.80;53.15
7802;BME280;3945;48.952;9.506;2023-03-03T12:24:57;98243.19;;;11.82;52.63
7802;BME280;3945;48.952;9.506;2023-03-03T12:27:29;98239.81;;;11.86;51.61
7802;BME280;3945;48.952;9.506;2023-03-03T12:30:02;98241.31;;;11.82;52.69
7802;BME280;3945;48.952;9.506;2023-03-03T12:32:35;98246.09;;;11.80;52.36
7802;BME280;3945;48.952;9.506;2023-03-03T12:35:08;98244.56;;;11.84;53.18
7802;BME280;3945;48.952;9.506;2023-03-03T12:37:41;98237.13;;;11.86;53.84
7802;BME280;3945;48.952;9.506;2023-03-03T12:40:11;98230.84;;;11.92;52.42
7802;BME280;3945;48.952;9.506;2023-03-03T12:42:45;98235.94;;;11.94;52.71
7802;BME280;3945;48.952;9.506;2023-03-03T12:45:20;98231.81;;;12.03;52.68
7802;BME280;3945;48.952;9.506;2023-03-03T12:47:52;98231.41;;;12.11;53.04
7802;BME280;3945;48.952;9.506;2023-03-03T12:50:26;98241.44;;;12.21;52.50
7802;BME280;3945;48.952;9.506;2023-03-03T12:52:58;98235.28;;;12.20;51.77
7802;BME280;3945;48.952;9.506;2023-03-03T12:55:29;98231.81;;;12.20;52.06
7802;BME280;3945;48.952;9.506;2023-03-03T12:57:59;98238.94;;;12.14;52.14
7802;BME280;3945;48.952;9.506;2023-03-03T13:00:34;98232.16;;;12.23;53.16
7802;BME280;3945;48.952;9.506;2023-03-03T13:03:06;98228.56;;;12.34;53.03
7802;BME280;3945;48.952;9.506;2023-03-03T13:05:39;98223.63;;;12.26;52.29
7802;BME280;3945;48.952;9.506;2023-03-03T13:08:17;98224.84;;;12.35;51.85
7802;BME280;3945;48.952;9.506;2023-03-03T13:10:54;98232.38;;;12.38;51.61
7802;BME280;3945;48.952;9.506;2023-03-03T13:13:23;98226.81;;;12.62;52.43
7802;BME280;3945;48.952;9.506;2023-03-03T13:15:54;98228.47;;;12.84;50.82
7802;BME280;3945;48.952;9.506;2023-03-03T13:18:27;98230.41;;;12.89;51.06
7802;BME280;3945;48.952;9.506;2023-03-03T13:20:56;98230.66;;;12.87;51.09
7802;BME280;3945;48.952;9.506;2023-03-03T13:23:36;98235.47;;;12.90;50.70
7802;BME280;3945;48.952;9.506;2023-03-03T13:26:07;98229.59;;;12.88;50.03
7802;BME280;3945;48.952;9.506;2023-03-03T13:28:36;98219.34;;;12.80;50.29
7802;BME280;3945;48.952;9.506;2023-03-03T13:31:05;98222.22;;;12.96;49.71
7802;BME280;3945;48.952;9.506;2023-03-03T13:33:35;98222.97;;;13.13;50.15
7802;BME280;3945;48.952;9.506;2023-03-03T13:36:02;98222.19;;;13.39;49.57
7802;BME280;3945;48.952;9.506;2023-03-03T13:38:30;98214.13;;;13.61;50.54
7802;BME280;3945;48.952;9.506;2023-03-03T13:41:03;98211.88;;;13.80;48.32
7802;BME280;3945;48.952;9.506;2023-03-03T13:43:31;98211.69;;;13.86;49.07
7802;BME280;3945;48.952;9.506;2023-03-03T13:46:02;98204.97;;;13.84;48.97
7802;BME280;3945;48.952;9.506;2023-03-03T13:48:39;98188.22;;;13.98;49.46
7802;BME280;3945;48.952;9.506;2023-03-03T13:51:10;98198.47;;;14.06;48.54
7802;BME280;3945;48.952;9.506;2023-03-03T13:53:44;98193.19;;;14.17;47.53
7802;BME280;3945;48.952;9.506;2023-03-03T13:56:19;98187.84;;;14.17;47.75
7802;BME280;3945;48.952;9.506;2023-03-03T13:58:48;98194.84;;;14.23;47.49
7802;BME280;3945;48.952;9.506;2023-03-03T14:01:18;98189.97;;;14.15;46.32
7802;BME280;3945;48.952;9.506;2023-03-03T14:03:55;98189.47;;;14.18;47.34